createdAt,value
2019-01-26T00:02:27.784Z,75.48
2019-01-26T00:04:56.108Z,75.01
2019-01-26T00:07:24.444Z,74.95
2019-01-26T00:09:52.789Z,75.10
2019-01-26T00:12:21.117Z,75.44
2019-01-26T00:14:49.459Z,75.09
2019-01-26T00:17:17.814Z,75.33
2019-01-26T00:19:46.174Z,75.73
2019-01-26T00:22:14.495Z,75.09
2019-01-26T00:24:42.904Z,75.77
2019-01-26T00:27:11.544Z,75.91
2019-01-26T00:29:39.862Z,75.69
2019-01-26T00:32:08.239Z,75.61
2019-01-26T00:34:36.689Z,75.81
2019-01-26T00:37:05.092Z,76.24
2019-01-26T00:39:33.455Z,76.19
2019-01-26T00:42:01.845Z,76.25
2019-01-26T00:44:30.247Z,75.82
2019-01-26T00:46:58.590Z,75.63
2019-01-26T00:49:26.924Z,75.56
2019-01-26T00:51:55.266Z,76.26
2019-01-26T00:54:23.621Z,76.54
2019-01-26T00:56:51.940Z,76.04
2019-01-26T00:59:20.313Z,75.70
2019-01-26T01:01:48.733Z,75.71
2019-01-26T01:04:17.138Z,76.18
2019-01-26T01:06:45.457Z,76.52
2019-01-26T01:09:13.877Z,76.50
2019-01-26T01:11:42.221Z,77.24
2019-01-26T01:14:10.930Z,76.99
2019-01-26T01:16:39.281Z,76.84
2019-01-26T01:19:07.739Z,77.16
2019-01-26T01:21:36.112Z,76.82
2019-01-26T01:24:04.553Z,76.46
2019-01-26T01:26:32.899Z,76.32
2019-01-26T01:29:01.250Z,76.26
2019-01-26T01:31:29.637Z,76.67
2019-01-26T01:33:58.029Z,76.38
2019-01-26T01:36:26.504Z,76.79
2019-01-26T01:38:54.818Z,77.02
2019-01-26T01:41:23.180Z,77.53
2019-01-26T01:43:51.591Z,76.75
2019-01-26T01:46:19.920Z,77.05
2019-01-26T01:48:48.252Z,77.65
2019-01-26T01:51:16.640Z,76.96
2019-01-26T01:53:44.973Z,76.95
2019-01-26T01:56:13.665Z,77.15
2019-01-26T01:58:42.009Z,77.58
2019-01-26T02:01:10.674Z,77.17
2019-01-26T02:03:39.193Z,77.43
2019-01-26T02:06:07.513Z,77.04
2019-01-26T02:08:35.842Z,76.89
2019-01-26T02:11:04.339Z,77.00
2019-01-26T02:13:32.766Z,77.03
2019-01-26T02:16:01.156Z,77.01
2019-01-26T02:18:29.507Z,76.58
2019-01-26T02:20:57.904Z,77.58
2019-01-26T02:23:26.319Z,77.77
2019-01-26T02:25:54.651Z,78.07
2019-01-26T02:28:23.120Z,77.71
2019-01-26T02:30:51.459Z,77.74
2019-01-26T02:33:19.814Z,77.23
2019-01-26T02:35:48.133Z,76.96
2019-01-26T02:38:17.060Z,77.42
2019-01-26T02:40:45.352Z,76.70
2019-01-26T02:43:13.716Z,76.47
2019-01-26T02:45:42.045Z,76.61
2019-01-26T02:48:10.895Z,76.26
2019-01-26T02:50:39.334Z,76.41
2019-01-26T02:53:07.656Z,76.26
2019-01-26T02:55:35.967Z,76.39
2019-01-26T02:58:04.519Z,76.12
2019-01-26T03:00:32.836Z,76.20
2019-01-26T03:03:01.264Z,75.90
2019-01-26T03:05:29.590Z,76.21
2019-01-26T03:07:58.029Z,76.01
2019-01-26T03:10:29.407Z,76.33
2019-01-26T03:12:58.526Z,76.39
2019-01-26T03:15:27.023Z,76.50
2019-01-26T03:17:55.432Z,76.61
2019-01-26T03:20:24.580Z,76.75
2019-01-26T03:22:52.909Z,76.44
2019-01-26T03:25:21.327Z,76.63
2019-01-26T03:27:49.662Z,77.00
2019-01-26T03:30:20.831Z,76.95
2019-01-26T03:32:49.264Z,77.29
2019-01-26T03:35:17.804Z,77.02
2019-01-26T03:37:46.564Z,76.51
2019-01-26T03:40:18.483Z,76.10
2019-01-26T03:42:47.105Z,76.26
2019-01-26T03:45:16.514Z,76.87
2019-01-26T03:47:45.353Z,76.59
2019-01-26T03:50:15.262Z,76.31
2019-01-26T03:52:44.201Z,76.80
2019-01-26T03:55:14.645Z,76.83
2019-01-26T03:57:44.004Z,76.94
2019-01-26T04:00:16.907Z,76.94
2019-01-26T04:02:45.358Z,77.00
2019-01-26T04:05:15.167Z,77.31
2019-01-26T04:07:43.576Z,76.99
2019-01-26T04:10:13.385Z,77.60
2019-01-26T04:12:41.722Z,77.66
2019-01-26T04:15:14.281Z,78.00
2019-01-26T04:17:42.664Z,77.93
2019-01-26T04:20:13.714Z,77.11
2019-01-26T04:22:42.114Z,77.20
2019-01-26T04:25:10.968Z,76.62
2019-01-26T04:27:39.402Z,76.59
2019-01-26T04:30:11.720Z,76.04
2019-01-26T04:32:40.101Z,75.73
2019-01-26T04:35:09.518Z,75.73
2019-01-26T04:37:37.880Z,76.04
2019-01-26T04:40:07.967Z,75.99
2019-01-26T04:42:36.369Z,76.36
2019-01-26T04:45:08.616Z,76.86
2019-01-26T04:47:37.053Z,76.66
2019-01-26T04:50:08.102Z,76.57
2019-01-26T04:52:36.562Z,76.25
2019-01-26T04:55:06.592Z,76.32
2019-01-26T04:57:35.008Z,76.15
2019-01-26T05:00:04.102Z,76.56
2019-01-26T05:02:32.516Z,76.80
2019-01-26T05:05:00.866Z,76.23
2019-01-26T05:07:29.279Z,76.25
2019-01-26T05:09:57.616Z,76.22
2019-01-26T05:12:25.998Z,76.18
2019-01-26T05:14:54.374Z,76.44
2019-01-26T05:17:22.720Z,76.19
2019-01-26T05:19:51.051Z,75.92
2019-01-26T05:22:19.374Z,76.27
2019-01-26T05:24:47.726Z,75.77
2019-01-26T05:27:16.079Z,75.48
2019-01-26T05:29:44.448Z,75.27
2019-01-26T05:32:13.227Z,75.59
2019-01-26T05:34:41.532Z,75.90
2019-01-26T05:37:10.358Z,75.84
2019-01-26T05:39:38.639Z,75.73
2019-01-26T05:42:07.001Z,75.96
2019-01-26T05:44:35.331Z,76.06
2019-01-26T05:47:03.737Z,76.19
2019-01-26T05:49:32.081Z,76.01
2019-01-26T05:52:00.422Z,75.99
2019-01-26T05:54:28.747Z,75.70
2019-01-26T05:56:57.066Z,76.44
2019-01-26T05:59:25.405Z,76.53
2019-01-26T06:01:53.729Z,76.09
2019-01-26T06:04:22.062Z,76.19
2019-01-26T06:06:50.380Z,76.12
2019-01-26T06:09:18.725Z,76.06
2019-01-26T06:11:47.052Z,75.86
2019-01-26T06:14:15.516Z,75.85
2019-01-26T06:16:43.816Z,76.12
2019-01-26T06:19:12.181Z,76.38
2019-01-26T06:21:40.538Z,75.66
2019-01-26T06:24:09.335Z,75.80
2019-01-26T06:26:37.635Z,76.28
2019-01-26T06:29:05.970Z,76.07
2019-01-26T06:31:34.299Z,76.60
2019-01-26T06:34:02.657Z,75.95
2019-01-26T06:36:31.504Z,75.86
2019-01-26T06:39:00.020Z,75.73
2019-01-26T06:41:28.384Z,75.93
2019-01-26T06:43:56.699Z,75.76
2019-01-26T06:46:25.121Z,75.63
2019-01-26T06:48:55.426Z,75.71
2019-01-26T06:51:23.795Z,75.95
2019-01-26T06:53:52.082Z,75.98
2019-01-26T06:56:20.449Z,76.13
2019-01-26T06:58:48.760Z,76.24
2019-01-26T07:01:17.203Z,75.58
2019-01-26T07:03:46.142Z,75.93
2019-01-26T07:06:16.560Z,76.34
2019-01-26T07:08:44.871Z,76.06
2019-01-26T07:11:13.247Z,76.13
2019-01-26T07:13:41.589Z,75.65
2019-01-26T07:16:09.954Z,75.79
2019-01-26T07:18:38.332Z,75.76
2019-01-26T07:21:07.250Z,75.69
2019-01-26T07:23:35.607Z,75.54
2019-01-26T07:26:04.101Z,75.66
2019-01-26T07:28:32.451Z,75.58
2019-01-26T07:31:00.797Z,76.08
2019-01-26T07:33:29.142Z,75.85
2019-01-26T07:35:57.486Z,76.54
2019-01-26T07:38:25.824Z,76.49
2019-01-26T07:40:54.224Z,76.40
2019-01-26T07:43:22.725Z,75.77
2019-01-26T07:45:51.128Z,75.65
2019-01-26T07:48:19.549Z,75.59
2019-01-26T07:50:47.886Z,76.17
2019-01-26T07:53:16.243Z,76.15
2019-01-26T07:55:44.591Z,75.79
2019-01-26T07:58:12.996Z,75.93
2019-01-26T08:00:41.345Z,75.10
2019-01-26T08:03:09.679Z,75.64
2019-01-26T08:05:38.635Z,75.82
2019-01-26T08:08:07.286Z,75.50
2019-01-26T08:10:35.670Z,75.32
2019-01-26T08:13:04.148Z,75.44
2019-01-26T08:15:33.205Z,76.09
2019-01-26T08:18:01.679Z,75.42
2019-01-26T08:20:29.992Z,76.06
2019-01-26T08:22:58.346Z,75.19
2019-01-26T08:25:26.719Z,75.47
2019-01-26T08:27:55.148Z,75.90
2019-01-26T08:30:24.280Z,75.38
2019-01-26T08:32:53.151Z,74.56
2019-01-26T08:35:21.530Z,74.75
2019-01-26T08:37:50.454Z,75.30
2019-01-26T08:40:21.340Z,76.08
2019-01-26T08:42:49.892Z,75.94
2019-01-26T08:45:18.267Z,75.70
2019-01-26T08:47:46.681Z,75.67
2019-01-26T08:50:17.730Z,75.34
2019-01-26T08:52:46.261Z,74.89
2019-01-26T08:55:18.426Z,75.52
2019-01-26T08:57:45.412Z,76.14
2019-01-26T09:00:18.384Z,76.00
2019-01-26T09:02:50.578Z,75.95
2019-01-26T09:05:20.012Z,75.30
2019-01-26T09:07:48.822Z,75.02
2019-01-26T09:10:17.438Z,75.11
2019-01-26T09:12:45.844Z,74.41
2019-01-26T09:15:14.437Z,74.50
2019-01-26T09:17:42.859Z,74.48
2019-01-26T09:20:13.469Z,75.12
2019-01-26T09:22:41.796Z,74.59
2019-01-26T09:25:10.976Z,74.57
2019-01-26T09:27:39.529Z,74.43
2019-01-26T09:30:11.170Z,74.42
2019-01-26T09:32:39.571Z,74.45
2019-01-26T09:35:09.742Z,73.97
2019-01-26T09:37:38.224Z,74.28
2019-01-26T09:40:08.638Z,75.40
2019-01-26T09:42:37.018Z,75.05
2019-01-26T09:45:10.594Z,74.08
2019-01-26T09:47:39.003Z,74.49
2019-01-26T09:50:10.149Z,74.24
2019-01-26T09:52:38.702Z,74.38
2019-01-26T09:55:10.804Z,74.12
2019-01-26T09:57:39.198Z,74.31
2019-01-26T10:00:09.324Z,73.65
2019-01-26T10:02:37.641Z,74.46
2019-01-26T10:05:09.337Z,73.73
2019-01-26T10:07:37.711Z,73.73
2019-01-26T10:10:10.196Z,73.84
2019-01-26T10:12:38.695Z,73.99
2019-01-26T10:15:10.710Z,73.07
2019-01-26T10:17:45.476Z,73.34
2019-01-26T10:20:12.527Z,73.01
2019-01-26T10:22:40.856Z,73.68
2019-01-26T10:25:11.189Z,74.00
2019-01-26T10:27:39.597Z,73.41
2019-01-26T10:30:11.543Z,73.94
2019-01-26T10:32:39.900Z,74.18
2019-01-26T10:35:09.293Z,74.19
2019-01-26T10:37:37.621Z,74.42
2019-01-26T10:40:11.530Z,74.17
2019-01-26T10:42:39.870Z,73.90
2019-01-26T10:45:09.486Z,73.25
2019-01-26T10:47:37.822Z,73.65
2019-01-26T10:50:09.290Z,73.97
2019-01-26T10:52:37.590Z,73.99
2019-01-26T10:55:09.977Z,73.39
2019-01-26T10:57:38.442Z,72.71
2019-01-26T11:00:10.489Z,73.17
2019-01-26T11:02:38.913Z,73.33
2019-01-26T11:05:08.307Z,73.00
2019-01-26T11:07:36.664Z,73.20
2019-01-26T11:10:10.745Z,73.28
2019-01-26T11:12:39.124Z,72.57
2019-01-26T11:15:10.726Z,71.47
2019-01-26T11:17:39.107Z,71.59
2019-01-26T11:20:11.515Z,71.52
2019-01-26T11:22:39.857Z,70.48
2019-01-26T11:25:10.731Z,71.12
2019-01-26T11:27:39.921Z,70.45
2019-01-26T11:30:11.776Z,70.31
2019-01-26T11:32:40.209Z,69.62
2019-01-26T11:35:13.512Z,68.91
2019-01-26T11:37:41.899Z,68.01
2019-01-26T11:40:11.725Z,68.80
2019-01-26T11:42:40.083Z,69.17
2019-01-26T11:45:15.893Z,69.27
2019-01-26T11:47:44.254Z,68.30
2019-01-26T11:50:16.297Z,68.12
2019-01-26T11:52:44.701Z,67.70
2019-01-26T11:55:15.091Z,67.13
2019-01-26T11:57:43.432Z,66.47
2019-01-26T12:00:17.287Z,66.08
2019-01-26T12:02:47.727Z,66.14
2019-01-26T12:05:18.023Z,65.75
2019-01-26T12:07:46.332Z,65.47
2019-01-26T12:10:14.735Z,65.97
2019-01-26T12:12:43.097Z,65.72
2019-01-26T12:15:13.765Z,66.44
2019-01-26T12:17:42.177Z,66.42
2019-01-26T12:20:11.988Z,66.12
2019-01-26T12:22:40.449Z,65.56
2019-01-26T12:25:10.365Z,66.43
2019-01-26T12:27:38.763Z,66.43
2019-01-26T12:30:12.886Z,66.14
2019-01-26T12:32:41.290Z,66.73
2019-01-26T12:35:12.580Z,66.80
2019-01-26T12:37:41.074Z,67.67
2019-01-26T12:40:13.111Z,68.02
2019-01-26T12:42:41.504Z,67.42
2019-01-26T12:45:16.166Z,67.68
2019-01-26T12:47:44.613Z,67.32
2019-01-26T12:50:13.285Z,68.02
2019-01-26T12:52:42.122Z,68.18
2019-01-26T12:55:14.916Z,67.62
2019-01-26T12:57:43.373Z,68.37
2019-01-26T13:00:14.443Z,69.08
2019-01-26T13:02:42.850Z,68.09
2019-01-26T13:05:11.605Z,67.23
2019-01-26T13:07:39.950Z,68.03
2019-01-26T13:10:11.004Z,67.53
2019-01-26T13:12:39.454Z,68.52
2019-01-26T13:15:15.068Z,68.82
2019-01-26T13:17:38.688Z,69.55
2019-01-26T13:20:11.841Z,69.16
2019-01-26T13:22:40.248Z,69.68
2019-01-26T13:25:11.376Z,69.78
2019-01-26T13:27:39.737Z,70.16
2019-01-26T13:30:12.717Z,69.89
2019-01-26T13:32:41.021Z,70.21
2019-01-26T13:35:09.717Z,70.07
2019-01-26T13:37:38.055Z,70.02
2019-01-26T13:40:11.278Z,70.29
2019-01-26T13:42:39.677Z,70.71
2019-01-26T13:45:10.376Z,70.13
2019-01-26T13:47:38.816Z,70.43
2019-01-26T13:50:08.955Z,69.70
2019-01-26T13:52:37.303Z,69.65
2019-01-26T13:55:09.965Z,69.71
2019-01-26T13:57:38.411Z,69.57
2019-01-26T14:00:11.673Z,69.56
2019-01-26T14:02:40.061Z,69.76
2019-01-26T14:05:09.093Z,69.25
2019-01-26T14:07:37.381Z,69.12
2019-01-26T14:10:10.216Z,69.08
2019-01-26T14:12:38.497Z,68.86
2019-01-26T14:15:08.683Z,69.23
2019-01-26T14:17:37.815Z,69.75
2019-01-26T14:20:10.741Z,69.54
2019-01-26T14:22:39.054Z,70.14
2019-01-26T14:25:09.558Z,70.32
2019-01-26T14:27:37.928Z,70.32
2019-01-26T14:30:11.594Z,70.27
2019-01-26T14:32:39.956Z,70.14
2019-01-26T14:35:09.891Z,70.31
2019-01-26T14:37:38.341Z,70.47
2019-01-26T14:40:10.889Z,71.17
2019-01-26T14:42:39.172Z,70.93
2019-01-26T14:45:09.620Z,71.56
2019-01-26T14:47:37.983Z,71.91
2019-01-26T14:50:09.951Z,72.54
2019-01-26T14:52:38.305Z,72.66
2019-01-26T14:55:10.372Z,72.33
2019-01-26T14:57:38.809Z,72.99
2019-01-26T15:00:11.329Z,73.58
2019-01-26T15:02:39.658Z,73.25
2019-01-26T15:05:09.225Z,73.37
2019-01-26T15:07:37.606Z,74.37
2019-01-26T15:10:10.369Z,74.54
2019-01-26T15:12:38.755Z,73.74
2019-01-26T15:15:10.851Z,73.13
2019-01-26T15:17:39.313Z,73.64
2019-01-26T15:20:11.938Z,74.08
2019-01-26T15:22:40.338Z,74.62
2019-01-26T15:25:09.134Z,74.95
2019-01-26T15:27:38.212Z,74.43
2019-01-26T15:30:11.276Z,74.74
2019-01-26T15:32:39.611Z,74.40
2019-01-26T15:35:08.551Z,73.87
2019-01-26T15:37:40.051Z,74.24
2019-01-26T15:40:10.782Z,74.05
2019-01-26T15:42:39.229Z,74.03
2019-01-26T15:45:12.241Z,73.90
2019-01-26T15:47:40.568Z,74.49
2019-01-26T15:50:13.168Z,74.19
2019-01-26T15:52:41.989Z,74.25
2019-01-26T15:55:13.634Z,74.28
2019-01-26T15:57:42.070Z,74.42
2019-01-26T16:00:17.767Z,74.53
2019-01-26T16:02:46.217Z,74.40
2019-01-26T16:05:14.763Z,74.19
2019-01-26T16:07:43.089Z,74.03
2019-01-26T16:10:15.617Z,74.22
2019-01-26T16:12:44.026Z,74.33
2019-01-26T16:15:16.480Z,74.23
2019-01-26T16:17:45.006Z,74.94
2019-01-26T16:20:20.250Z,75.48
2019-01-26T16:22:46.707Z,74.69
2019-01-26T16:25:15.650Z,75.14
2019-01-26T16:27:44.078Z,75.58
2019-01-26T16:30:17.899Z,75.81
2019-01-26T16:32:46.479Z,76.35
2019-01-26T16:35:16.108Z,76.08
2019-01-26T16:37:44.554Z,76.65
2019-01-26T16:40:15.062Z,76.87
2019-01-26T16:42:43.624Z,76.87
2019-01-26T16:45:13.673Z,76.78
2019-01-26T16:47:42.525Z,76.46
2019-01-26T16:50:15.962Z,76.34
2019-01-26T16:52:44.333Z,75.45
2019-01-26T16:55:14.237Z,76.36
2019-01-26T16:57:42.567Z,76.11
2019-01-26T17:00:16.294Z,76.15
2019-01-26T17:02:44.747Z,76.70
2019-01-26T17:05:13.647Z,76.31
2019-01-26T17:07:42.053Z,76.99
2019-01-26T17:10:14.121Z,76.21
2019-01-26T17:12:42.478Z,76.24
2019-01-26T17:15:11.989Z,76.69
2019-01-26T17:17:40.313Z,76.13
2019-01-26T17:20:12.518Z,76.92
2019-01-26T17:22:41.375Z,77.02
2019-01-26T17:25:09.854Z,77.06
2019-01-26T17:27:38.320Z,77.32
2019-01-26T17:30:11.188Z,77.29
2019-01-26T17:32:39.520Z,77.25
2019-01-26T17:35:09.277Z,76.74
2019-01-26T17:37:38.199Z,76.29
2019-01-26T17:40:10.391Z,76.34
2019-01-26T17:42:38.765Z,75.87
2019-01-26T17:45:09.783Z,76.24
2019-01-26T17:47:38.214Z,76.52
2019-01-26T17:50:10.301Z,76.08
2019-01-26T17:52:40.515Z,77.06
2019-01-26T17:55:11.159Z,76.97
2019-01-26T17:57:39.925Z,76.69
2019-01-26T18:00:11.071Z,77.01
2019-01-26T18:02:39.607Z,76.84
2019-01-26T18:05:10.796Z,76.41
2019-01-26T18:07:39.287Z,76.87
2019-01-26T18:10:11.857Z,76.77
2019-01-26T18:12:40.141Z,76.82
2019-01-26T18:15:10.245Z,76.85
2019-01-26T18:17:38.679Z,77.33
2019-01-26T18:20:09.541Z,77.67
2019-01-26T18:22:37.833Z,77.48
2019-01-26T18:25:08.143Z,77.42
2019-01-26T18:27:36.862Z,77.35
2019-01-26T18:30:07.756Z,76.84
2019-01-26T18:32:36.152Z,76.64
2019-01-26T18:35:07.996Z,76.86
2019-01-26T18:37:36.321Z,76.94
2019-01-26T18:40:08.655Z,76.69
2019-01-26T18:42:37.106Z,76.56
2019-01-26T18:45:07.518Z,76.33
2019-01-26T18:47:36.307Z,76.18
2019-01-26T18:50:08.893Z,76.49
2019-01-26T18:52:37.222Z,76.54
2019-01-26T18:55:06.583Z,76.71
2019-01-26T18:57:35.054Z,76.60
2019-01-26T19:00:06.039Z,76.39
2019-01-26T19:02:34.374Z,76.64
2019-01-26T19:05:03.806Z,76.13
2019-01-26T19:07:32.121Z,76.32
2019-01-26T19:10:00.445Z,76.23
2019-01-26T19:12:28.877Z,76.03
2019-01-26T19:14:57.284Z,76.06
2019-01-26T19:17:25.578Z,75.76
2019-01-26T19:19:53.911Z,75.66
2019-01-26T19:22:22.326Z,75.73
2019-01-26T19:24:51.097Z,75.70
2019-01-26T19:27:19.426Z,75.88
2019-01-26T19:29:47.769Z,76.09
2019-01-26T19:32:16.162Z,76.56
2019-01-26T19:34:44.467Z,76.70
2019-01-26T19:37:13.205Z,76.75
2019-01-26T19:39:41.520Z,76.55
2019-01-26T19:42:10.626Z,76.66
2019-01-26T19:44:38.945Z,75.74
2019-01-26T19:47:07.426Z,75.66
2019-01-26T19:49:35.722Z,75.36
2019-01-26T19:52:04.186Z,75.52
2019-01-26T19:54:32.941Z,75.52
2019-01-26T19:57:01.318Z,75.92
2019-01-26T19:59:29.625Z,75.89
2019-01-26T20:01:58.035Z,75.90
2019-01-26T20:04:26.460Z,75.75
2019-01-26T20:06:55.137Z,75.90
2019-01-26T20:09:23.494Z,75.76
2019-01-26T20:12:18.051Z,76.07
2019-01-26T20:14:46.436Z,75.59
2019-01-26T20:17:14.778Z,75.85
2019-01-26T20:19:43.222Z,75.91
2019-01-26T20:22:12.240Z,75.96
2019-01-26T20:24:40.556Z,76.04
2019-01-26T20:27:09.026Z,75.95
2019-01-26T20:29:37.484Z,75.34
2019-01-26T20:32:06.051Z,75.45
2019-01-26T20:34:35.595Z,75.43
2019-01-26T20:37:04.143Z,75.10
2019-01-26T20:39:32.566Z,74.63
2019-01-26T20:42:00.945Z,74.39
2019-01-26T20:44:29.341Z,75.01
2019-01-26T20:46:57.694Z,74.91
2019-01-26T20:49:26.064Z,75.12
2019-01-26T20:51:54.398Z,74.53
2019-01-26T20:54:22.775Z,74.65
2019-01-26T20:56:51.206Z,74.51
2019-01-26T20:59:19.515Z,75.12
2019-01-26T21:01:47.860Z,74.47
2019-01-26T21:04:16.239Z,74.33
2019-01-26T21:06:44.624Z,74.02
2019-01-26T21:09:13.373Z,73.84
2019-01-26T21:11:41.833Z,73.56
2019-01-26T21:14:11.122Z,73.79
2019-01-26T21:16:39.464Z,74.23
2019-01-26T21:19:07.845Z,74.09
2019-01-26T21:21:36.170Z,74.12
2019-01-26T21:24:04.859Z,74.50
2019-01-26T21:26:33.294Z,74.78
2019-01-26T21:29:01.624Z,74.54
2019-01-26T21:31:30.111Z,73.99
2019-01-26T21:33:58.426Z,74.99
2019-01-26T21:36:26.736Z,75.00
2019-01-26T21:38:55.061Z,74.42
2019-01-26T21:41:23.489Z,74.38
2019-01-26T21:43:51.904Z,74.31
2019-01-26T21:46:20.317Z,74.94
2019-01-26T21:48:48.706Z,75.33
2019-01-26T21:51:17.042Z,74.79
2019-01-26T21:53:45.552Z,75.01
2019-01-26T21:56:14.213Z,75.45
2019-01-26T21:58:42.559Z,74.84
2019-01-26T22:01:11.374Z,75.55
2019-01-26T22:03:39.694Z,75.13
2019-01-26T22:06:08.074Z,75.97
2019-01-26T22:08:36.479Z,75.31
2019-01-26T22:11:04.928Z,75.77
2019-01-26T22:13:33.877Z,74.85
2019-01-26T22:16:02.219Z,75.22
2019-01-26T22:18:30.552Z,75.74
2019-01-26T22:21:01.023Z,75.78
2019-01-26T22:23:29.472Z,76.18
2019-01-26T22:25:57.824Z,76.32
2019-01-26T22:28:26.176Z,76.17
2019-01-26T22:30:54.490Z,76.30
2019-01-26T22:33:22.869Z,75.85
2019-01-26T22:35:51.204Z,76.46
2019-01-26T22:38:20.204Z,75.70
2019-01-26T22:40:48.604Z,76.34
2019-01-26T22:43:17.061Z,76.48
2019-01-26T22:45:45.530Z,76.97
2019-01-26T22:48:14.105Z,76.48
2019-01-26T22:50:42.430Z,76.24
2019-01-26T22:53:11.674Z,76.34
2019-01-26T22:55:40.106Z,75.73
2019-01-26T22:58:09.508Z,75.63
2019-01-26T23:00:45.141Z,75.38
2019-01-26T23:03:14.504Z,75.03
2019-01-26T23:05:47.767Z,75.28
2019-01-26T23:08:20.470Z,74.86
2019-01-26T23:10:54.221Z,74.78
2019-01-26T23:13:25.177Z,74.51
2019-01-26T23:15:58.834Z,74.39
2019-01-26T23:18:33.863Z,74.50
2019-01-26T23:21:05.456Z,74.48
2019-01-26T23:23:40.547Z,75.12
2019-01-26T23:26:15.259Z,75.31
2019-01-26T23:28:49.253Z,75.42
2019-01-26T23:31:18.800Z,75.28
2019-01-26T23:33:47.517Z,75.25
2019-01-26T23:36:16.617Z,75.15
2019-01-26T23:38:45.058Z,74.67
2019-01-26T23:41:13.864Z,75.30
2019-01-26T23:43:42.243Z,74.67
2019-01-26T23:46:11.276Z,73.95
2019-01-26T23:48:39.565Z,74.05
2019-01-26T23:51:07.979Z,73.93
2019-01-26T23:53:36.493Z,74.20
2019-01-26T23:56:05.149Z,74.49
2019-01-26T23:58:33.518Z,74.00
